Airfield :
LOGIN :

Register | Disclaimer

   EN    FR    IT 

 










Legend :    VFR   Marginal VFR   IFR   Intensive IFR   Very Intensive IFR
Visi :
Ceiling :
>= 8 km
>= 3000ft
5 to 8 km
1000 to 3000 ft
1500m to 5 km
500 to 1000 ft
800 to 1500m
200 to 500 ft
< 800m
< 200 ft
Symbols :   Thunderstorms  Fog  Heavy snow  Heavy precipitations  Wind > 20 kt
SIGMETs :     Misc.  Thunderstorms  Icing  Turbulence  Mountain Waves  Volcanic Ashes







- Airport Elevation : 1470 ft


LSMD - Dubendorf Military

CURRENT METAR :
  • 141720Z AUTO 10007KT 9999NDV -SHRA FEW033 SCT045 BKN060 18/16 Q1018 RESHRA RMK

EXPIRED METARs :
  • 141650Z AUTO 08008KT 050V120 9999NDV -RA FEW015 BKN044 BKN064 19/15 Q1018 RMK
  • 141620Z AUTO 25005KT 200V290 9999NDV FEW052 SCT060 23/14 Q1018 RMK
  • 141550Z AUTO 25006KT 210V310 9999NDV FEW046 SCT099 23/13 Q1017 RMK
  • 141520Z AUTO 24006KT 200V300 9999NDV SCT039 SCT049 24/15 Q1017 RMK
  • 141450Z AUTO 22003KT 120V290 9999NDV BKN040 BKN100 22/14 Q1017 RMK

Expired Forecast.
No reported NOTAMs for that airfield.



MET'MAP, your aeronautical weather chart ! - Copyright ORBIFLY December 2007 - Disclaimer

ORBIFLY MET'MAP TEAM :

Programming & Development : Alexandra Zaïnal
Concept & Development : Baudouin d'Aumeries
Co-Development & Prog : Marc-Olivier Méhu
Technical & hardware support : Manuel Goepfert

Contact : metmap@orbifly.com




SOURCES & CREDITS :

   NOAA